createdAt,value
2022-12-25T00:01:13.209Z,20.00
2022-12-25T00:03:40.182Z,24.20
2022-12-25T00:06:07.072Z,28.48
2022-12-25T00:08:34.204Z,17.52
2022-12-25T00:11:06.282Z,25.25
2022-12-25T00:13:33.579Z,23.88
2022-12-25T00:16:00.644Z,28.03
2022-12-25T00:18:27.018Z,18.25
2022-12-25T00:21:02.008Z,28.33
2022-12-25T00:23:28.899Z,33.85
2022-12-25T00:25:56.665Z,28.80
2022-12-25T00:28:24.177Z,18.20
2022-12-25T00:30:51.368Z,22.88
2022-12-25T00:33:19.172Z,19.33
2022-12-25T00:35:56.322Z,24.70
2022-12-25T00:38:22.790Z,23.83
2022-12-25T00:40:49.222Z,34.23
2022-12-25T00:43:15.729Z,18.85
2022-12-25T00:45:42.221Z,27.42
2022-12-25T00:48:09.038Z,22.65
2022-12-25T00:50:38.615Z,23.90
2022-12-25T00:53:05.126Z,15.00
2022-12-25T00:55:31.643Z,24.20
2022-12-25T00:57:58.943Z,20.02
2022-12-25T01:00:25.367Z,20.55
2022-12-25T01:02:51.879Z,15.95
2022-12-25T01:05:18.507Z,18.90
2022-12-25T01:07:44.929Z,17.55
2022-12-25T01:10:23.504Z,24.00
2022-12-25T01:12:51.453Z,19.95
2022-12-25T01:15:18.612Z,17.20
2022-12-25T01:17:45.534Z,23.80
2022-12-25T01:20:14.605Z,16.70
2022-12-25T01:22:41.108Z,22.25
2022-12-25T01:25:09.079Z,18.48
2022-12-25T01:27:35.681Z,21.50
2022-12-25T01:30:02.321Z,17.77
2022-12-25T01:32:28.805Z,18.25
2022-12-25T01:34:56.365Z,17.45
2022-12-25T01:37:24.694Z,14.55
2022-12-25T01:39:51.409Z,20.90
2022-12-25T01:42:20.124Z,22.87
2022-12-25T01:44:46.444Z,25.73
2022-12-25T01:47:15.013Z,19.70
2022-12-25T01:49:45.197Z,17.15
2022-12-25T01:52:18.825Z,22.90
2022-12-25T01:54:57.461Z,23.10
2022-12-25T01:57:28.299Z,20.92
2022-12-25T01:59:57.711Z,18.63
2022-12-25T02:02:25.297Z,19.35
2022-12-25T02:05:14.260Z,20.95
2022-12-25T02:07:42.791Z,25.20
2022-12-25T02:10:11.123Z,14.55
2022-12-25T02:12:38.582Z,19.35
2022-12-25T02:15:11.985Z,17.48
2022-12-25T02:17:53.405Z,15.27
2022-12-25T02:20:25.815Z,19.40
2022-12-25T02:23:03.688Z,12.05
2022-12-25T02:25:53.299Z,11.95
2022-12-25T02:28:45.642Z,18.38
2022-12-25T02:31:17.177Z,16.77
2022-12-25T02:34:03.217Z,19.23
2022-12-25T02:36:41.007Z,14.93
2022-12-25T02:39:55.690Z,31.73
2022-12-25T02:42:52.543Z,19.63
2022-12-25T02:46:06.075Z,17.50
2022-12-25T02:48:55.189Z,17.00
2022-12-25T02:51:44.840Z,18.83
2022-12-25T02:54:33.204Z,12.23
2022-12-25T02:57:21.853Z,19.80
2022-12-25T03:00:09.812Z,22.48
2022-12-25T03:03:15.866Z,15.27
2022-12-25T03:06:02.290Z,17.55
2022-12-25T03:08:34.728Z,17.02
2022-12-25T03:11:27.451Z,19.50
2022-12-25T03:14:18.976Z,21.42
2022-12-25T03:16:53.525Z,13.50
2022-12-25T03:19:43.306Z,20.85
2022-12-25T03:22:42.773Z,12.65
2022-12-25T03:25:28.874Z,19.05
2022-12-25T03:27:57.708Z,18.85
2022-12-25T03:30:50.002Z,16.33
2022-12-25T03:33:44.311Z,23.50
2022-12-25T03:37:05.684Z,17.95
2022-12-25T03:40:01.129Z,14.68
2022-12-25T03:42:42.010Z,13.15
2022-12-25T03:45:38.332Z,16.27
2022-12-25T03:48:12.818Z,16.08
2022-12-25T03:51:08.506Z,20.42
2022-12-25T03:54:03.399Z,8.63
2022-12-25T03:56:50.248Z,13.10
2022-12-25T03:59:39.799Z,18.67
2022-12-25T04:02:25.823Z,11.40
2022-12-25T04:05:10.588Z,19.17
2022-12-25T04:07:55.980Z,23.60
2022-12-25T04:10:40.907Z,15.48
2022-12-25T04:13:26.312Z,10.60
2022-12-25T04:16:12.113Z,13.10
2022-12-25T04:18:57.440Z,9.73
2022-12-25T04:21:43.552Z,10.48
2022-12-25T04:24:29.067Z,16.35
2022-12-25T04:27:14.346Z,16.77
2022-12-25T04:29:59.568Z,16.52
2022-12-25T04:32:44.579Z,10.63
2022-12-25T04:35:30.610Z,15.55
2022-12-25T04:37:57.226Z,12.50
2022-12-25T04:40:23.677Z,15.87
2022-12-25T04:42:51.408Z,14.88
2022-12-25T04:45:18.109Z,15.13
2022-12-25T04:47:44.582Z,8.55
2022-12-25T04:50:11.451Z,15.15
2022-12-25T04:52:40.080Z,8.27
2022-12-25T04:55:08.192Z,12.95
2022-12-25T04:57:35.271Z,11.95
2022-12-25T05:00:01.814Z,8.07
2022-12-25T05:02:28.628Z,12.63
2022-12-25T05:04:55.253Z,11.87
2022-12-25T05:07:22.712Z,14.90
2022-12-25T05:09:49.120Z,21.75
2022-12-25T05:12:15.597Z,13.38
2022-12-25T05:14:42.783Z,12.68
2022-12-25T05:17:09.244Z,7.23
2022-12-25T05:19:35.709Z,7.63
2022-12-25T05:22:02.207Z,12.73
2022-12-25T05:24:28.875Z,12.10
2022-12-25T05:26:55.382Z,10.10
2022-12-25T05:29:22.013Z,8.93
2022-12-25T05:31:48.556Z,12.20
2022-12-25T05:34:15.639Z,12.10
2022-12-25T05:36:42.075Z,9.48
2022-12-25T05:39:09.071Z,9.45
2022-12-25T05:41:35.551Z,11.57
2022-12-25T05:44:02.075Z,6.72
2022-12-25T05:46:28.540Z,12.00
2022-12-25T05:48:54.953Z,11.63
2022-12-25T05:51:21.537Z,9.40
2022-12-25T05:53:48.107Z,7.27
2022-12-25T05:56:14.603Z,6.78
2022-12-25T05:58:41.494Z,6.75
2022-12-25T06:01:18.629Z,8.40
2022-12-25T06:03:45.256Z,9.35
2022-12-25T06:06:12.321Z,11.50
2022-12-25T06:08:39.045Z,6.18
2022-12-25T06:11:07.186Z,15.23
2022-12-25T06:13:35.059Z,12.98
2022-12-25T06:16:10.238Z,12.32
2022-12-25T06:18:38.927Z,11.17
2022-12-25T06:21:09.877Z,6.80
2022-12-25T06:23:37.813Z,8.43
2022-12-25T06:26:10.452Z,6.30
2022-12-25T06:28:37.877Z,12.45
2022-12-25T06:31:09.119Z,11.03
2022-12-25T06:33:36.663Z,12.50
2022-12-25T06:36:07.412Z,8.27
2022-12-25T06:38:33.907Z,11.65
2022-12-25T06:41:10.634Z,9.27
2022-12-25T06:43:37.819Z,7.00
2022-12-25T06:46:09.944Z,11.18
2022-12-25T06:48:37.247Z,6.93
2022-12-25T06:51:04.767Z,7.13
2022-12-25T06:53:40.369Z,15.23
2022-12-25T06:56:15.623Z,6.63
2022-12-25T06:58:47.704Z,11.93
2022-12-25T07:01:23.959Z,8.07
2022-12-25T07:03:54.579Z,7.82
2022-12-25T07:06:20.994Z,9.18
2022-12-25T07:08:51.379Z,10.30
2022-12-25T07:11:18.888Z,6.80
2022-12-25T07:13:49.783Z,3.38
2022-12-25T07:16:16.518Z,5.88
2022-12-25T07:18:43.437Z,6.82
2022-12-25T07:21:29.239Z,5.50
2022-12-25T07:23:55.924Z,6.43
2022-12-25T07:26:22.477Z,6.97
2022-12-25T07:28:49.079Z,14.52
2022-12-25T07:31:17.598Z,9.85
2022-12-25T07:33:45.056Z,8.93
2022-12-25T07:36:12.797Z,8.18
2022-12-25T07:38:40.538Z,6.70
2022-12-25T07:41:13.238Z,8.20
2022-12-25T07:52:39.490Z,7.30
2022-12-25T07:55:10.378Z,5.10
2022-12-25T07:57:36.927Z,6.97
2022-12-25T08:00:05.550Z,6.80
2022-12-25T08:02:32.451Z,5.60
2022-12-25T08:05:00.182Z,9.55
2022-12-25T08:07:27.259Z,3.30
2022-12-25T08:09:53.726Z,8.65
2022-12-25T08:12:20.175Z,6.93
2022-12-25T08:14:46.670Z,3.47
2022-12-25T08:17:13.200Z,7.90
2022-12-25T08:19:39.801Z,6.65
2022-12-25T08:22:06.359Z,8.13
2022-12-25T08:24:33.301Z,5.28
2022-12-25T08:26:59.803Z,3.42
2022-12-25T08:29:28.841Z,5.65
2022-12-25T08:31:55.801Z,8.15
2022-12-25T08:34:23.481Z,2.47
2022-12-25T08:36:49.981Z,3.47
2022-12-25T08:39:16.688Z,4.28
2022-12-25T08:41:43.262Z,7.30
2022-12-25T08:44:12.174Z,4.55
2022-12-25T08:46:46.259Z,7.72
2022-12-25T08:49:12.907Z,7.53
2022-12-25T08:51:40.279Z,4.00
2022-12-25T08:54:07.188Z,3.97
2022-12-25T08:56:33.725Z,7.22
2022-12-25T08:59:00.568Z,8.40
2022-12-25T09:01:27.733Z,5.35
2022-12-25T09:03:55.174Z,5.28
2022-12-25T09:06:21.830Z,6.25
2022-12-25T09:08:49.868Z,4.07
2022-12-25T09:11:18.646Z,3.22
2022-12-25T09:13:47.270Z,5.10
2022-12-25T09:16:17.424Z,6.22
2022-12-25T09:18:55.832Z,5.00
2022-12-25T09:21:26.698Z,4.50
2022-12-25T09:23:53.099Z,2.85
2022-12-25T09:26:20.315Z,10.30
2022-12-25T09:28:51.861Z,9.07
2022-12-25T09:31:20.187Z,3.75
2022-12-25T09:33:46.717Z,3.05
2022-12-25T09:36:13.312Z,4.32
2022-12-25T09:38:40.155Z,2.87
2022-12-25T09:41:33.259Z,8.80
2022-12-25T09:44:08.084Z,4.82
2022-12-25T09:46:50.088Z,2.35
2022-12-25T09:49:55.700Z,4.03
2022-12-25T09:52:30.534Z,7.17
2022-12-25T09:55:13.397Z,5.97
2022-12-25T09:57:42.974Z,5.70
2022-12-25T10:00:19.627Z,7.28
2022-12-25T10:03:11.428Z,3.20
2022-12-25T10:05:37.919Z,5.47
2022-12-25T10:08:28.729Z,4.15
2022-12-25T10:11:04.209Z,3.65
2022-12-25T10:13:33.682Z,7.88
2022-12-25T10:16:22.057Z,5.82
2022-12-25T10:19:34.664Z,4.38
2022-12-25T10:22:09.069Z,4.80
2022-12-25T10:24:48.817Z,9.35
2022-12-25T10:27:40.721Z,7.10
2022-12-25T10:30:19.672Z,7.75
2022-12-25T10:36:20.517Z,4.00
2022-12-25T10:38:47.930Z,5.80
2022-12-25T10:41:36.336Z,4.30
2022-12-25T10:44:15.002Z,6.28
2022-12-25T10:46:47.419Z,7.13
2022-12-25T10:49:16.794Z,4.55
2022-12-25T10:51:43.523Z,8.57
2022-12-25T10:54:31.391Z,4.47
2022-12-25T10:57:02.151Z,6.63
2022-12-25T11:00:04.055Z,3.83
2022-12-25T11:06:03.065Z,7.60
2022-12-25T11:08:33.167Z,8.75
2022-12-25T11:11:12.232Z,4.18
2022-12-25T11:16:49.135Z,5.25
2022-12-25T11:19:35.911Z,3.65
2022-12-25T11:22:03.858Z,6.35
2022-12-25T11:24:33.187Z,3.42
2022-12-25T11:27:02.352Z,4.73
2022-12-25T11:29:43.963Z,3.58
2022-12-25T11:32:22.502Z,4.50
2022-12-25T11:34:51.171Z,5.10
2022-12-25T11:37:27.483Z,10.52
2022-12-25T11:39:55.341Z,7.93
2022-12-25T11:42:37.572Z,7.57
2022-12-25T11:45:15.482Z,7.25
2022-12-25T11:48:07.241Z,6.55
2022-12-25T11:50:42.783Z,8.10
2022-12-25T11:53:21.439Z,5.53
2022-12-25T11:55:55.777Z,5.65
2022-12-25T11:58:40.912Z,6.35
2022-12-25T12:01:29.804Z,4.40
2022-12-25T12:03:59.505Z,6.47
2022-12-25T12:06:26.866Z,4.47
2022-12-25T12:09:01.467Z,4.90
2022-12-25T12:11:38.931Z,6.07
2022-12-25T12:14:43.043Z,5.68
2022-12-25T12:17:14.641Z,4.38
2022-12-25T12:19:41.248Z,5.85
2022-12-25T12:22:39.666Z,5.93
2022-12-25T12:25:07.941Z,4.72
2022-12-25T12:27:40.755Z,7.45
2022-12-25T12:30:24.119Z,4.82
2022-12-25T12:32:56.073Z,4.82
2022-12-25T12:35:30.527Z,5.07
2022-12-25T12:38:24.551Z,7.03
2022-12-25T12:40:55.356Z,9.60
2022-12-25T12:43:58.898Z,5.57
2022-12-25T12:46:31.290Z,6.85
2022-12-25T12:49:21.706Z,7.47
2022-12-25T12:51:49.411Z,6.35
2022-12-25T12:54:20.912Z,8.13
2022-12-25T12:57:21.266Z,6.60
2022-12-25T12:59:48.023Z,7.53
2022-12-25T13:02:55.598Z,6.20
2022-12-25T13:05:34.720Z,6.07
2022-12-25T13:08:10.513Z,5.88
2022-12-25T13:10:46.615Z,6.10
2022-12-25T13:13:23.109Z,7.47
2022-12-25T13:15:56.049Z,5.43
2022-12-25T13:18:25.825Z,5.75
2022-12-25T13:21:05.662Z,7.03
2022-12-25T13:23:34.788Z,5.57
2022-12-25T13:26:17.482Z,9.33
2022-12-25T13:28:47.085Z,6.35
2022-12-25T13:31:13.746Z,6.63
2022-12-25T13:33:51.925Z,7.53
2022-12-25T13:36:19.114Z,6.78
2022-12-25T13:38:52.360Z,4.38
2022-12-25T13:41:39.895Z,5.10
2022-12-25T13:44:22.451Z,6.88
2022-12-25T13:46:48.970Z,5.53
2022-12-25T13:49:17.252Z,7.85
2022-12-25T13:51:44.556Z,12.07
2022-12-25T13:54:13.642Z,5.68
2022-12-25T13:56:53.831Z,8.63
2022-12-25T13:59:23.762Z,5.25
2022-12-25T14:01:52.112Z,5.05
2022-12-25T14:04:28.121Z,7.33
2022-12-25T14:06:54.606Z,5.72
2022-12-25T14:09:22.094Z,4.53
2022-12-25T14:11:55.257Z,9.20
2022-12-25T14:14:26.372Z,4.45
2022-12-25T14:16:57.778Z,6.40
2022-12-25T14:19:33.007Z,5.30
2022-12-25T14:22:11.047Z,4.47
2022-12-25T14:24:39.652Z,5.75
2022-12-25T14:27:16.986Z,5.65
2022-12-25T14:29:45.633Z,5.85
2022-12-25T14:32:18.849Z,7.00
2022-12-25T14:34:47.301Z,6.60
2022-12-25T14:37:18.370Z,5.35
2022-12-25T14:39:47.594Z,4.40
2022-12-25T14:42:21.866Z,4.30
2022-12-25T14:45:26.557Z,6.82
2022-12-25T14:47:59.780Z,5.43
2022-12-25T14:50:38.628Z,6.35
2022-12-25T14:53:16.749Z,6.53
2022-12-25T14:55:48.328Z,8.90
2022-12-25T14:58:25.323Z,7.50
2022-12-25T15:01:01.581Z,6.25
2022-12-25T15:03:35.578Z,4.88
2022-12-25T15:06:32.226Z,5.93
2022-12-25T15:09:12.783Z,7.97
2022-12-25T15:11:39.207Z,6.07
2022-12-25T15:14:05.872Z,7.05
2022-12-25T15:16:41.808Z,6.32
2022-12-25T15:19:10.401Z,6.65
2022-12-25T15:21:37.530Z,5.25
2022-12-25T15:24:04.559Z,6.68
2022-12-25T15:26:32.261Z,16.92
2022-12-25T15:28:58.883Z,7.90
2022-12-25T15:31:30.851Z,7.55
2022-12-25T15:34:00.518Z,6.60
2022-12-25T15:36:27.569Z,6.10
2022-12-25T15:38:54.951Z,6.20
2022-12-25T15:41:53.481Z,4.60
2022-12-25T15:44:20.335Z,6.25
2022-12-25T15:46:46.953Z,5.80
2022-12-25T15:49:14.603Z,7.07
2022-12-25T15:51:41.872Z,4.80
2022-12-25T15:54:08.599Z,18.73
2022-12-25T15:57:05.375Z,9.88
2022-12-25T15:59:32.301Z,6.15
2022-12-25T16:02:01.069Z,6.78
2022-12-25T16:04:31.269Z,12.85
2022-12-25T16:07:02.499Z,12.65
2022-12-25T16:09:28.934Z,16.50
2022-12-25T16:11:55.308Z,14.95
2022-12-25T16:14:21.949Z,8.38
2022-12-25T16:16:48.432Z,9.25
2022-12-25T16:19:15.107Z,9.55
2022-12-25T16:21:44.676Z,8.20
2022-12-25T16:24:11.344Z,7.87
2022-12-25T16:26:37.783Z,6.50
2022-12-25T16:29:07.174Z,9.90
2022-12-25T16:31:34.862Z,12.15
2022-12-25T16:34:01.583Z,7.78
2022-12-25T16:36:28.084Z,7.63
2022-12-25T16:38:54.506Z,7.78
2022-12-25T16:41:21.817Z,4.85
2022-12-25T16:43:48.293Z,10.38
2022-12-25T16:46:18.097Z,11.93
2022-12-25T16:48:45.304Z,20.23
2022-12-25T16:51:16.982Z,26.45
2022-12-25T16:53:43.483Z,20.83
2022-12-25T16:56:12.435Z,14.35
2022-12-25T16:58:38.823Z,11.77
2022-12-25T17:01:10.852Z,11.70
2022-12-25T17:03:38.232Z,14.25
2022-12-25T17:06:12.211Z,15.68
2022-12-25T17:08:38.637Z,11.00
2022-12-25T17:11:05.945Z,7.00
2022-12-25T17:13:32.328Z,7.93
2022-12-25T17:15:59.031Z,68.90
2022-12-25T17:18:25.649Z,62.92
2022-12-25T17:20:53.481Z,55.28
2022-12-25T17:23:20.721Z,67.40
2022-12-25T17:25:47.149Z,21.90
2022-12-25T17:28:13.817Z,15.63
2022-12-25T17:30:40.236Z,13.77
2022-12-25T17:33:06.607Z,11.45
2022-12-25T17:35:36.131Z,11.88
2022-12-25T17:38:02.634Z,16.30
2022-12-25T17:40:29.811Z,15.00
2022-12-25T17:42:56.301Z,16.33
2022-12-25T17:45:22.700Z,16.42
2022-12-25T17:47:49.175Z,8.73
2022-12-25T17:50:15.717Z,24.60
2022-12-25T17:52:42.342Z,39.58
2022-12-25T17:55:09.218Z,43.03
2022-12-25T17:57:35.621Z,35.55
2022-12-25T18:00:02.051Z,34.83
2022-12-25T18:02:29.870Z,26.73
2022-12-25T18:04:56.963Z,27.90
2022-12-25T18:07:23.478Z,26.77
2022-12-25T18:09:49.880Z,38.83
2022-12-25T18:12:16.259Z,42.47
2022-12-25T18:14:42.772Z,45.73
2022-12-25T18:17:09.442Z,44.53
2022-12-25T18:19:35.841Z,35.53
2022-12-25T18:22:02.233Z,34.97
2022-12-25T18:24:28.604Z,24.10
2022-12-25T18:26:55.016Z,28.67
2022-12-25T18:29:21.421Z,14.63
2022-12-25T18:31:47.964Z,24.30
2022-12-25T18:34:14.675Z,27.65
2022-12-25T18:36:41.246Z,48.80
2022-12-25T18:39:07.994Z,22.27
2022-12-25T18:41:54.394Z,29.48
2022-12-25T18:44:20.809Z,35.00
2022-12-25T18:46:47.227Z,38.63
2022-12-25T18:49:13.659Z,18.55
2022-12-25T18:51:41.056Z,26.03
2022-12-25T18:54:07.480Z,26.20
2022-12-25T18:56:33.914Z,31.02
2022-12-25T18:59:00.719Z,24.98
2022-12-25T19:01:27.219Z,26.15
2022-12-25T19:04:00.086Z,19.10
2022-12-25T19:06:33.134Z,18.77
2022-12-25T19:08:59.599Z,15.93
2022-12-25T19:11:26.059Z,16.35
2022-12-25T19:13:52.482Z,27.50
2022-12-25T19:16:18.954Z,34.83
2022-12-25T19:18:45.547Z,26.90
2022-12-25T19:21:12.243Z,22.27
2022-12-25T19:23:39.135Z,25.55
2022-12-25T19:26:07.447Z,38.03
2022-12-25T19:28:34.912Z,48.40
2022-12-25T19:31:01.617Z,68.65
2022-12-25T19:33:28.262Z,56.65
2022-12-25T19:35:59.646Z,42.45
2022-12-25T19:38:26.153Z,53.67
2022-12-25T19:41:01.804Z,59.17
2022-12-25T19:43:34.433Z,44.00
2022-12-25T19:46:01.843Z,33.63
2022-12-25T19:48:28.819Z,31.42
2022-12-25T19:50:55.286Z,23.38
2022-12-25T19:53:23.693Z,23.03
2022-12-25T19:55:52.613Z,26.85
2022-12-25T19:58:20.244Z,25.00
2022-12-25T20:00:59.984Z,31.67
2022-12-25T20:03:26.873Z,24.33
2022-12-25T20:05:53.392Z,21.57
2022-12-25T20:08:19.998Z,24.27
2022-12-25T20:10:46.853Z,16.63
2022-12-25T20:13:13.297Z,18.45
2022-12-25T20:15:39.802Z,15.45
2022-12-25T20:18:06.281Z,16.27
2022-12-25T20:20:33.027Z,13.93
2022-12-25T20:22:59.598Z,13.10
2022-12-25T20:25:26.019Z,14.07
2022-12-25T20:27:52.454Z,11.45
2022-12-25T20:30:18.924Z,25.33
2022-12-25T20:32:50.408Z,18.00
2022-12-25T20:35:17.441Z,12.95
2022-12-25T20:37:44.075Z,12.77
2022-12-25T20:40:11.589Z,17.08
2022-12-25T20:42:38.083Z,12.53
2022-12-25T20:45:06.667Z,11.85
2022-12-25T20:47:34.283Z,14.95
2022-12-25T20:50:01.046Z,12.60
2022-12-25T20:52:27.587Z,13.15
2022-12-25T20:54:53.946Z,12.17
2022-12-25T20:57:20.335Z,12.20
2022-12-25T20:59:46.793Z,12.27
2022-12-25T21:02:35.634Z,14.93
2022-12-25T21:04:59.867Z,15.02
2022-12-25T21:07:26.241Z,11.65
2022-12-25T21:09:52.632Z,11.80
2022-12-25T21:12:19.034Z,16.92
2022-12-25T21:14:45.404Z,14.30
2022-12-25T21:17:11.849Z,14.48
2022-12-25T21:19:38.246Z,14.03
2022-12-25T21:22:04.694Z,15.07
2022-12-25T21:24:31.117Z,15.35
2022-12-25T21:26:57.521Z,12.30
2022-12-25T21:29:25.031Z,12.40
2022-12-25T21:32:12.281Z,14.87
2022-12-25T21:34:38.952Z,12.95
2022-12-25T21:37:05.795Z,18.70
2022-12-25T21:39:32.186Z,18.25
2022-12-25T21:41:59.443Z,17.50
2022-12-25T21:44:26.128Z,15.20
2022-12-25T21:46:52.573Z,17.60
2022-12-25T21:49:38.980Z,21.45
2022-12-25T21:52:08.261Z,20.30
2022-12-25T21:54:35.256Z,16.65
2022-12-25T21:57:01.748Z,17.67
2022-12-25T21:59:28.249Z,20.63
2022-12-25T22:01:54.794Z,16.15
2022-12-25T22:04:22.683Z,16.83
2022-12-25T22:07:07.774Z,17.05
2022-12-25T22:09:34.363Z,16.57
2022-12-25T22:12:20.350Z,15.98
2022-12-25T22:15:02.569Z,13.38
2022-12-25T22:17:50.632Z,13.65
2022-12-25T22:20:34.429Z,11.43
2022-12-25T22:23:01.108Z,15.10
2022-12-25T22:25:27.639Z,13.38
2022-12-25T22:27:54.348Z,12.02
2022-12-25T22:30:31.855Z,11.98
2022-12-25T22:32:58.366Z,10.80
2022-12-25T22:35:24.937Z,9.23
2022-12-25T22:37:51.437Z,8.88
2022-12-25T22:40:19.774Z,10.10
2022-12-25T22:42:46.717Z,8.32
2022-12-25T22:45:13.270Z,11.77
2022-12-25T22:47:39.775Z,8.97
2022-12-25T22:50:07.153Z,14.10
2022-12-25T22:52:33.599Z,12.90
2022-12-25T22:55:00.039Z,10.45
2022-12-25T22:57:26.586Z,14.32
2022-12-25T22:59:53.119Z,21.73
2022-12-25T23:02:20.458Z,8.20
2022-12-25T23:04:47.095Z,11.32
2022-12-25T23:07:14.571Z,8.38
2022-12-25T23:09:42.011Z,10.70
2022-12-25T23:12:28.957Z,10.30
2022-12-25T23:14:56.738Z,10.15
2022-12-25T23:17:41.603Z,10.02
2022-12-25T23:20:43.009Z,9.63
2022-12-25T23:23:33.906Z,10.95
2022-12-25T23:26:09.601Z,7.23
2022-12-25T23:29:00.696Z,8.25
2022-12-25T23:31:33.995Z,9.35
2022-12-25T23:34:00.783Z,10.25
2022-12-25T23:36:27.531Z,8.43
2022-12-25T23:38:55.201Z,9.97
2022-12-25T23:41:21.607Z,10.65
2022-12-25T23:43:48.087Z,9.40
2022-12-25T23:46:15.105Z,11.27
2022-12-25T23:48:41.805Z,8.75
2022-12-25T23:51:12.914Z,9.30
2022-12-25T23:53:39.893Z,9.77
2022-12-25T23:56:06.814Z,9.68
2022-12-25T23:58:33.330Z,11.63
